sensor_id;sensor_type;location;lat;lon;timestamp;temperature;humidity
4097;DHT22;2062;50.694;7.246;2024-03-17T00:01:11;8.00;57.40
4097;DHT22;2062;50.694;7.246;2024-03-17T00:03:37;7.90;57.50
4097;DHT22;2062;50.694;7.246;2024-03-17T00:06:05;7.90;57.30
4097;DHT22;2062;50.694;7.246;2024-03-17T00:08:32;7.90;57.20
4097;DHT22;2062;50.694;7.246;2024-03-17T00:10:58;7.80;56.90
4097;DHT22;2062;50.694;7.246;2024-03-17T00:13:25;7.80;57.00
4097;DHT22;2062;50.694;7.246;2024-03-17T00:15:51;7.80;56.90
4097;DHT22;2062;50.694;7.246;2024-03-17T00:18:18;7.70;57.00
4097;DHT22;2062;50.694;7.246;2024-03-17T00:20:44;7.70;56.70
4097;DHT22;2062;50.694;7.246;2024-03-17T00:23:12;7.60;56.80
4097;DHT22;2062;50.694;7.246;2024-03-17T00:25:38;7.70;56.90
4097;DHT22;2062;50.694;7.246;2024-03-17T00:28:05;7.60;56.70
4097;DHT22;2062;50.694;7.246;2024-03-17T00:30:31;7.60;56.60
4097;DHT22;2062;50.694;7.246;2024-03-17T00:32:59;7.50;56.50
4097;DHT22;2062;50.694;7.246;2024-03-17T00:35:25;7.50;56.40
4097;DHT22;2062;50.694;7.246;2024-03-17T00:37:52;7.40;56.20
4097;DHT22;2062;50.694;7.246;2024-03-17T00:40:20;7.40;56.10
4097;DHT22;2062;50.694;7.246;2024-03-17T00:42:47;7.30;56.20
4097;DHT22;2062;50.694;7.246;2024-03-17T00:45:13;7.30;56.10
4097;DHT22;2062;50.694;7.246;2024-03-17T00:47:40;7.30;56.00
4097;DHT22;2062;50.694;7.246;2024-03-17T00:50:06;7.30;56.00
4097;DHT22;2062;50.694;7.246;2024-03-17T00:52:34;7.30;56.00
4097;DHT22;2062;50.694;7.246;2024-03-17T00:55:00;7.20;55.90
4097;DHT22;2062;50.694;7.246;2024-03-17T00:57:28;7.20;55.90
4097;DHT22;2062;50.694;7.246;2024-03-17T00:59:54;7.20;55.90
4097;DHT22;2062;50.694;7.246;2024-03-17T01:02:22;7.10;55.80
4097;DHT22;2062;50.694;7.246;2024-03-17T01:04:47;7.10;55.90
4097;DHT22;2062;50.694;7.246;2024-03-17T01:07:14;7.10;55.90
4097;DHT22;2062;50.694;7.246;2024-03-17T01:09:40;7.00;55.90
4097;DHT22;2062;50.694;7.246;2024-03-17T01:12:07;7.10;56.00
4097;DHT22;2062;50.694;7.246;2024-03-17T01:14:34;7.00;55.80
4097;DHT22;2062;50.694;7.246;2024-03-17T01:17:01;7.00;55.70
4097;DHT22;2062;50.694;7.246;2024-03-17T01:19:30;7.00;55.60
4097;DHT22;2062;50.694;7.246;2024-03-17T01:21:57;6.90;55.60
4097;DHT22;2062;50.694;7.246;2024-03-17T01:24:23;6.90;55.60
4097;DHT22;2062;50.694;7.246;2024-03-17T01:26:50;6.90;55.60
4097;DHT22;2062;50.694;7.246;2024-03-17T01:29:16;6.80;55.40
4097;DHT22;2062;50.694;7.246;2024-03-17T01:31:44;6.80;55.40
4097;DHT22;2062;50.694;7.246;2024-03-17T01:34:09;6.80;55.40
4097;DHT22;2062;50.694;7.246;2024-03-17T01:36:36;6.80;55.30
4097;DHT22;2062;50.694;7.246;2024-03-17T01:39:02;6.80;55.30
4097;DHT22;2062;50.694;7.246;2024-03-17T01:41:31;6.80;55.40
4097;DHT22;2062;50.694;7.246;2024-03-17T01:43:57;6.70;55.30
4097;DHT22;2062;50.694;7.246;2024-03-17T01:46:24;6.70;55.30
4097;DHT22;2062;50.694;7.246;2024-03-17T01:48:52;6.70;55.30
4097;DHT22;2062;50.694;7.246;2024-03-17T01:51:19;6.70;55.30
4097;DHT22;2062;50.694;7.246;2024-03-17T01:53:45;6.70;55.20
4097;DHT22;2062;50.694;7.246;2024-03-17T01:56:14;6.70;55.10
4097;DHT22;2062;50.694;7.246;2024-03-17T01:58:43;6.70;55.20
4097;DHT22;2062;50.694;7.246;2024-03-17T02:01:10;6.60;55.10
4097;DHT22;2062;50.694;7.246;2024-03-17T02:03:36;6.60;55.10
4097;DHT22;2062;50.694;7.246;2024-03-17T02:06:04;6.60;55.10
4097;DHT22;2062;50.694;7.246;2024-03-17T02:08:48;6.60;55.00
4097;DHT22;2062;50.694;7.246;2024-03-17T02:11:24;6.60;55.00
4097;DHT22;2062;50.694;7.246;2024-03-17T02:13:51;6.50;54.90
4097;DHT22;2062;50.694;7.246;2024-03-17T02:16:18;6.50;55.00
4097;DHT22;2062;50.694;7.246;2024-03-17T02:18:45;6.50;54.90
4097;DHT22;2062;50.694;7.246;2024-03-17T02:21:14;6.50;54.90
4097;DHT22;2062;50.694;7.246;2024-03-17T02:23:42;6.50;54.80
4097;DHT22;2062;50.694;7.246;2024-03-17T02:26:09;6.50;54.80
4097;DHT22;2062;50.694;7.246;2024-03-17T02:28:39;6.50;54.70
4097;DHT22;2062;50.694;7.246;2024-03-17T02:31:07;6.50;54.80
4097;DHT22;2062;50.694;7.246;2024-03-17T02:33:33;6.50;54.80
4097;DHT22;2062;50.694;7.246;2024-03-17T02:36:00;6.50;54.90
4097;DHT22;2062;50.694;7.246;2024-03-17T02:38:26;6.50;54.90
4097;DHT22;2062;50.694;7.246;2024-03-17T02:41:08;6.50;54.90
4097;DHT22;2062;50.694;7.246;2024-03-17T02:43:35;6.50;54.70
4097;DHT22;2062;50.694;7.246;2024-03-17T02:46:02;6.50;54.70
4097;DHT22;2062;50.694;7.246;2024-03-17T02:48:30;6.50;54.70
4097;DHT22;2062;50.694;7.246;2024-03-17T02:50:57;6.50;54.80
4097;DHT22;2062;50.694;7.246;2024-03-17T02:53:24;6.50;55.00
4097;DHT22;2062;50.694;7.246;2024-03-17T02:55:51;6.40;54.90
4097;DHT22;2062;50.694;7.246;2024-03-17T02:58:19;6.40;55.00
4097;DHT22;2062;50.694;7.246;2024-03-17T03:00:46;6.40;55.20
4097;DHT22;2062;50.694;7.246;2024-03-17T03:03:12;6.50;55.30
4097;DHT22;2062;50.694;7.246;2024-03-17T03:05:39;6.40;55.20
4097;DHT22;2062;50.694;7.246;2024-03-17T03:08:06;6.50;55.40
4097;DHT22;2062;50.694;7.246;2024-03-17T03:10:33;6.50;55.20
4097;DHT22;2062;50.694;7.246;2024-03-17T03:13:01;6.50;55.20
4097;DHT22;2062;50.694;7.246;2024-03-17T03:15:30;6.50;55.20
4097;DHT22;2062;50.694;7.246;2024-03-17T03:17:58;6.50;55.20
4097;DHT22;2062;50.694;7.246;2024-03-17T03:20:25;6.50;55.10
4097;DHT22;2062;50.694;7.246;2024-03-17T03:22:53;6.50;55.00
4097;DHT22;2062;50.694;7.246;2024-03-17T03:25:20;6.50;55.20
4097;DHT22;2062;50.694;7.246;2024-03-17T03:27:47;6.50;55.10
4097;DHT22;2062;50.694;7.246;2024-03-17T03:30:14;6.50;55.20
4097;DHT22;2062;50.694;7.246;2024-03-17T03:32:43;6.50;55.10
4097;DHT22;2062;50.694;7.246;2024-03-17T03:35:10;6.50;55.00
4097;DHT22;2062;50.694;7.246;2024-03-17T03:37:37;6.50;54.90
4097;DHT22;2062;50.694;7.246;2024-03-17T03:40:05;6.40;54.90
4097;DHT22;2062;50.694;7.246;2024-03-17T03:42:41;6.50;55.10
4097;DHT22;2062;50.694;7.246;2024-03-17T03:45:08;6.50;55.00
4097;DHT22;2062;50.694;7.246;2024-03-17T03:47:38;6.50;54.90
4097;DHT22;2062;50.694;7.246;2024-03-17T03:50:07;6.50;55.00
4097;DHT22;2062;50.694;7.246;2024-03-17T03:52:35;6.50;55.10
4097;DHT22;2062;50.694;7.246;2024-03-17T03:55:03;6.50;55.10
4097;DHT22;2062;50.694;7.246;2024-03-17T03:57:32;6.50;55.10
4097;DHT22;2062;50.694;7.246;2024-03-17T03:59:59;6.50;55.00
4097;DHT22;2062;50.694;7.246;2024-03-17T04:02:29;6.50;54.90
4097;DHT22;2062;50.694;7.246;2024-03-17T04:04:57;6.50;54.90
4097;DHT22;2062;50.694;7.246;2024-03-17T04:07:25;6.50;54.80
4097;DHT22;2062;50.694;7.246;2024-03-17T04:09:52;6.50;55.00
4097;DHT22;2062;50.694;7.246;2024-03-17T04:12:20;6.50;55.60
4097;DHT22;2062;50.694;7.246;2024-03-17T04:14:47;6.50;54.80
4097;DHT22;2062;50.694;7.246;2024-03-17T04:17:18;6.50;54.80
4097;DHT22;2062;50.694;7.246;2024-03-17T04:19:46;6.60;55.40
4097;DHT22;2062;50.694;7.246;2024-03-17T04:22:14;6.50;54.80
4097;DHT22;2062;50.694;7.246;2024-03-17T04:24:43;6.60;54.70
4097;DHT22;2062;50.694;7.246;2024-03-17T04:27:11;6.50;54.80
4097;DHT22;2062;50.694;7.246;2024-03-17T04:29:39;6.60;54.70
4097;DHT22;2062;50.694;7.246;2024-03-17T04:32:06;6.60;55.40
4097;DHT22;2062;50.694;7.246;2024-03-17T04:34:33;6.50;54.70
4097;DHT22;2062;50.694;7.246;2024-03-17T04:37:00;6.60;54.70
4097;DHT22;2062;50.694;7.246;2024-03-17T04:39:27;6.60;54.70
4097;DHT22;2062;50.694;7.246;2024-03-17T04:41:55;6.60;54.70
4097;DHT22;2062;50.694;7.246;2024-03-17T04:44:21;6.60;54.70
4097;DHT22;2062;50.694;7.246;2024-03-17T04:46:48;6.60;54.50
4097;DHT22;2062;50.694;7.246;2024-03-17T04:49:15;6.60;54.60
4097;DHT22;2062;50.694;7.246;2024-03-17T04:51:42;6.60;54.50
4097;DHT22;2062;50.694;7.246;2024-03-17T04:54:10;6.60;54.60
4097;DHT22;2062;50.694;7.246;2024-03-17T04:56:37;6.60;54.60
4097;DHT22;2062;50.694;7.246;2024-03-17T04:59:05;6.60;54.60
4097;DHT22;2062;50.694;7.246;2024-03-17T05:01:32;6.70;54.60
4097;DHT22;2062;50.694;7.246;2024-03-17T05:04:01;6.70;54.60
4097;DHT22;2062;50.694;7.246;2024-03-17T05:06:29;6.70;54.60
4097;DHT22;2062;50.694;7.246;2024-03-17T05:08:56;6.70;54.60
4097;DHT22;2062;50.694;7.246;2024-03-17T05:11:23;6.70;54.60
4097;DHT22;2062;50.694;7.246;2024-03-17T05:13:50;6.70;54.70
4097;DHT22;2062;50.694;7.246;2024-03-17T05:16:18;6.70;54.80
4097;DHT22;2062;50.694;7.246;2024-03-17T05:18:48;6.70;54.70
4097;DHT22;2062;50.694;7.246;2024-03-17T05:21:15;6.70;54.70
4097;DHT22;2062;50.694;7.246;2024-03-17T05:23:42;6.70;54.80
4097;DHT22;2062;50.694;7.246;2024-03-17T05:26:09;6.80;54.70
4097;DHT22;2062;50.694;7.246;2024-03-17T05:28:36;6.80;54.80
4097;DHT22;2062;50.694;7.246;2024-03-17T05:31:03;6.80;54.70
4097;DHT22;2062;50.694;7.246;2024-03-17T05:33:31;6.80;54.70
4097;DHT22;2062;50.694;7.246;2024-03-17T05:35:58;6.80;54.70
4097;DHT22;2062;50.694;7.246;2024-03-17T05:38:26;6.90;54.80
4097;DHT22;2062;50.694;7.246;2024-03-17T05:40:55;6.90;54.90
4097;DHT22;2062;50.694;7.246;2024-03-17T05:43:22;6.90;54.90
4097;DHT22;2062;50.694;7.246;2024-03-17T05:45:49;6.90;55.00
4097;DHT22;2062;50.694;7.246;2024-03-17T05:48:16;6.90;55.00
4097;DHT22;2062;50.694;7.246;2024-03-17T05:50:45;6.90;55.10
4097;DHT22;2062;50.694;7.246;2024-03-17T05:53:12;6.90;55.10
4097;DHT22;2062;50.694;7.246;2024-03-17T05:55:39;6.90;55.10
4097;DHT22;2062;50.694;7.246;2024-03-17T05:58:08;7.00;55.20
4097;DHT22;2062;50.694;7.246;2024-03-17T06:00:35;6.90;55.20
4097;DHT22;2062;50.694;7.246;2024-03-17T06:03:03;7.00;55.20
4097;DHT22;2062;50.694;7.246;2024-03-17T06:05:31;7.00;55.20
4097;DHT22;2062;50.694;7.246;2024-03-17T06:08:01;7.00;55.20
4097;DHT22;2062;50.694;7.246;2024-03-17T06:10:28;7.00;55.20
4097;DHT22;2062;50.694;7.246;2024-03-17T06:12:55;7.00;55.30
4097;DHT22;2062;50.694;7.246;2024-03-17T06:15:23;7.00;55.20
4097;DHT22;2062;50.694;7.246;2024-03-17T06:17:50;7.00;55.20
4097;DHT22;2062;50.694;7.246;2024-03-17T06:20:18;7.00;55.30
4097;DHT22;2062;50.694;7.246;2024-03-17T06:22:44;7.00;55.40
4097;DHT22;2062;50.694;7.246;2024-03-17T06:25:13;7.10;55.40
4097;DHT22;2062;50.694;7.246;2024-03-17T06:27:40;7.10;55.40
4097;DHT22;2062;50.694;7.246;2024-03-17T06:30:10;7.10;55.40
4097;DHT22;2062;50.694;7.246;2024-03-17T06:32:39;7.10;55.40
4097;DHT22;2062;50.694;7.246;2024-03-17T06:35:07;7.10;55.40
4097;DHT22;2062;50.694;7.246;2024-03-17T06:37:34;7.10;55.40
4097;DHT22;2062;50.694;7.246;2024-03-17T06:40:01;7.20;55.40
4097;DHT22;2062;50.694;7.246;2024-03-17T06:42:29;7.20;55.40
4097;DHT22;2062;50.694;7.246;2024-03-17T06:44:56;7.20;55.40
4097;DHT22;2062;50.694;7.246;2024-03-17T06:47:23;7.30;55.50
4097;DHT22;2062;50.694;7.246;2024-03-17T06:49:51;7.30;55.50
4097;DHT22;2062;50.694;7.246;2024-03-17T06:52:17;7.30;55.50
4097;DHT22;2062;50.694;7.246;2024-03-17T06:54:47;7.40;55.40
4097;DHT22;2062;50.694;7.246;2024-03-17T06:57:15;7.40;55.30
4097;DHT22;2062;50.694;7.246;2024-03-17T06:59:43;7.40;55.40
4097;DHT22;2062;50.694;7.246;2024-03-17T07:02:11;7.50;55.40
4097;DHT22;2062;50.694;7.246;2024-03-17T07:04:43;7.50;55.40
4097;DHT22;2062;50.694;7.246;2024-03-17T07:07:09;7.60;55.40
4097;DHT22;2062;50.694;7.246;2024-03-17T07:09:37;7.60;55.40
4097;DHT22;2062;50.694;7.246;2024-03-17T07:12:05;7.70;55.50
4097;DHT22;2062;50.694;7.246;2024-03-17T07:14:32;7.70;55.40
4097;DHT22;2062;50.694;7.246;2024-03-17T07:17:00;7.80;55.50
4097;DHT22;2062;50.694;7.246;2024-03-17T07:19:27;7.90;55.70
4097;DHT22;2062;50.694;7.246;2024-03-17T07:21:56;8.00;55.80
4097;DHT22;2062;50.694;7.246;2024-03-17T07:24:23;8.20;56.10
4097;DHT22;2062;50.694;7.246;2024-03-17T07:26:50;8.30;56.40
4097;DHT22;2062;50.694;7.246;2024-03-17T07:29:17;8.50;56.70
4097;DHT22;2062;50.694;7.246;2024-03-17T07:31:44;8.70;56.90
4097;DHT22;2062;50.694;7.246;2024-03-17T07:34:13;8.90;57.10
4097;DHT22;2062;50.694;7.246;2024-03-17T07:36:39;9.10;57.40
4097;DHT22;2062;50.694;7.246;2024-03-17T07:39:06;9.40;57.60
4097;DHT22;2062;50.694;7.246;2024-03-17T07:41:33;9.70;57.50
4097;DHT22;2062;50.694;7.246;2024-03-17T07:44:00;9.90;57.60
4097;DHT22;2062;50.694;7.246;2024-03-17T07:46:27;10.20;57.50
4097;DHT22;2062;50.694;7.246;2024-03-17T07:48:54;10.40;57.60
4097;DHT22;2062;50.694;7.246;2024-03-17T07:51:22;10.70;57.50
4097;DHT22;2062;50.694;7.246;2024-03-17T07:53:49;11.00;57.30
4097;DHT22;2062;50.694;7.246;2024-03-17T07:56:18;11.20;57.30
4097;DHT22;2062;50.694;7.246;2024-03-17T07:58:45;11.50;57.00
4097;DHT22;2062;50.694;7.246;2024-03-17T08:01:14;11.70;56.70
4097;DHT22;2062;50.694;7.246;2024-03-17T08:03:44;12.00;56.50
4097;DHT22;2062;50.694;7.246;2024-03-17T08:06:11;12.20;56.30
4097;DHT22;2062;50.694;7.246;2024-03-17T08:08:39;12.40;56.10
4097;DHT22;2062;50.694;7.246;2024-03-17T08:11:06;12.60;55.90
4097;DHT22;2062;50.694;7.246;2024-03-17T08:13:33;12.80;55.40
4097;DHT22;2062;50.694;7.246;2024-03-17T08:16:01;12.90;55.30
4097;DHT22;2062;50.694;7.246;2024-03-17T08:18:29;13.10;54.50
4097;DHT22;2062;50.694;7.246;2024-03-17T08:20:56;13.20;54.20
4097;DHT22;2062;50.694;7.246;2024-03-17T08:23:23;13.30;53.70
4097;DHT22;2062;50.694;7.246;2024-03-17T08:25:54;13.40;53.20
4097;DHT22;2062;50.694;7.246;2024-03-17T08:28:22;13.50;53.20
4097;DHT22;2062;50.694;7.246;2024-03-17T08:30:52;13.50;52.80
4097;DHT22;2062;50.694;7.246;2024-03-17T08:33:19;13.60;53.00
4097;DHT22;2062;50.694;7.246;2024-03-17T08:35:54;13.60;52.70
4097;DHT22;2062;50.694;7.246;2024-03-17T08:38:21;13.70;52.90
4097;DHT22;2062;50.694;7.246;2024-03-17T08:40:49;13.70;52.60
4097;DHT22;2062;50.694;7.246;2024-03-17T08:43:17;13.90;52.70
4097;DHT22;2062;50.694;7.246;2024-03-17T08:45:44;14.00;52.70
4097;DHT22;2062;50.694;7.246;2024-03-17T08:48:11;14.20;52.60
4097;DHT22;2062;50.694;7.246;2024-03-17T08:50:38;14.30;52.70
4097;DHT22;2062;50.694;7.246;2024-03-17T08:53:06;14.50;52.80
4097;DHT22;2062;50.694;7.246;2024-03-17T08:55:33;14.60;52.30
4097;DHT22;2062;50.694;7.246;2024-03-17T08:58:00;14.60;52.10
4097;DHT22;2062;50.694;7.246;2024-03-17T09:00:28;14.60;51.90
4097;DHT22;2062;50.694;7.246;2024-03-17T09:02:56;14.70;51.60
4097;DHT22;2062;50.694;7.246;2024-03-17T09:05:22;14.70;51.00
4097;DHT22;2062;50.694;7.246;2024-03-17T09:07:49;14.80;50.70
4097;DHT22;2062;50.694;7.246;2024-03-17T09:10:16;14.80;50.90
4097;DHT22;2062;50.694;7.246;2024-03-17T09:12:43;14.80;51.00
4097;DHT22;2062;50.694;7.246;2024-03-17T09:15:12;14.90;50.90
4097;DHT22;2062;50.694;7.246;2024-03-17T09:17:41;15.00;50.70
4097;DHT22;2062;50.694;7.246;2024-03-17T09:20:11;15.10;51.30
4097;DHT22;2062;50.694;7.246;2024-03-17T09:22:40;15.20;51.00
4097;DHT22;2062;50.694;7.246;2024-03-17T09:25:07;15.40;51.30
4097;DHT22;2062;50.694;7.246;2024-03-17T09:27:34;15.40;51.30
4097;DHT22;2062;50.694;7.246;2024-03-17T09:30:02;15.60;51.00
4097;DHT22;2062;50.694;7.246;2024-03-17T09:32:31;15.70;51.10
4097;DHT22;2062;50.694;7.246;2024-03-17T09:34:59;15.80;51.00
4097;DHT22;2062;50.694;7.246;2024-03-17T09:37:26;15.90;50.70
4097;DHT22;2062;50.694;7.246;2024-03-17T09:39:53;16.00;50.40
4097;DHT22;2062;50.694;7.246;2024-03-17T09:42:23;16.10;50.90
4097;DHT22;2062;50.694;7.246;2024-03-17T09:44:50;16.20;50.60
4097;DHT22;2062;50.694;7.246;2024-03-17T09:47:20;16.30;50.60
4097;DHT22;2062;50.694;7.246;2024-03-17T09:49:48;16.40;50.10
4097;DHT22;2062;50.694;7.246;2024-03-17T09:52:20;16.40;50.30
4097;DHT22;2062;50.694;7.246;2024-03-17T09:54:55;16.50;50.20
4097;DHT22;2062;50.694;7.246;2024-03-17T09:57:25;16.50;49.90
4097;DHT22;2062;50.694;7.246;2024-03-17T09:59:52;16.60;49.90
4097;DHT22;2062;50.694;7.246;2024-03-17T10:02:21;16.60;49.70
4097;DHT22;2062;50.694;7.246;2024-03-17T10:04:48;16.70;49.70
4097;DHT22;2062;50.694;7.246;2024-03-17T10:07:15;16.80;49.70
4097;DHT22;2062;50.694;7.246;2024-03-17T10:09:43;16.80;50.00
4097;DHT22;2062;50.694;7.246;2024-03-17T10:12:27;16.90;50.10
4097;DHT22;2062;50.694;7.246;2024-03-17T10:15:00;17.00;50.30
4097;DHT22;2062;50.694;7.246;2024-03-17T10:17:30;17.10;50.00
4097;DHT22;2062;50.694;7.246;2024-03-17T10:20:16;17.20;49.20
4097;DHT22;2062;50.694;7.246;2024-03-17T10:23:03;17.20;48.90
4097;DHT22;2062;50.694;7.246;2024-03-17T10:25:32;17.30;49.10
4097;DHT22;2062;50.694;7.246;2024-03-17T10:28:02;17.20;48.10
4097;DHT22;2062;50.694;7.246;2024-03-17T10:30:29;17.20;47.60
4097;DHT22;2062;50.694;7.246;2024-03-17T10:32:57;17.20;48.00
4097;DHT22;2062;50.694;7.246;2024-03-17T10:35:29;17.20;47.90
4097;DHT22;2062;50.694;7.246;2024-03-17T10:37:57;17.20;48.30
4097;DHT22;2062;50.694;7.246;2024-03-17T10:40:25;17.20;47.70
4097;DHT22;2062;50.694;7.246;2024-03-17T10:42:54;17.20;47.40
4097;DHT22;2062;50.694;7.246;2024-03-17T10:45:21;17.10;47.30
4097;DHT22;2062;50.694;7.246;2024-03-17T10:47:49;17.10;47.40
4097;DHT22;2062;50.694;7.246;2024-03-17T10:50:18;17.20;47.70
4097;DHT22;2062;50.694;7.246;2024-03-17T10:52:47;17.10;47.50
4097;DHT22;2062;50.694;7.246;2024-03-17T10:55:23;17.20;47.70
4097;DHT22;2062;50.694;7.246;2024-03-17T10:57:51;17.20;47.50
4097;DHT22;2062;50.694;7.246;2024-03-17T11:00:21;17.20;47.80
4097;DHT22;2062;50.694;7.246;2024-03-17T11:02:49;17.20;47.50
4097;DHT22;2062;50.694;7.246;2024-03-17T11:05:21;17.30;47.60
4097;DHT22;2062;50.694;7.246;2024-03-17T11:07:50;17.30;47.80
4097;DHT22;2062;50.694;7.246;2024-03-17T11:10:21;17.40;48.10
4097;DHT22;2062;50.694;7.246;2024-03-17T11:12:50;17.50;48.70
4097;DHT22;2062;50.694;7.246;2024-03-17T11:15:36;17.50;48.40
4097;DHT22;2062;50.694;7.246;2024-03-17T11:18:28;17.60;48.70
4097;DHT22;2062;50.694;7.246;2024-03-17T11:20:59;17.70;48.80
4097;DHT22;2062;50.694;7.246;2024-03-17T11:23:28;17.80;48.10
4097;DHT22;2062;50.694;7.246;2024-03-17T11:25:56;17.90;48.00
4097;DHT22;2062;50.694;7.246;2024-03-17T11:28:44;18.00;47.90
4097;DHT22;2062;50.694;7.246;2024-03-17T11:31:34;18.10;48.30
4097;DHT22;2062;50.694;7.246;2024-03-17T11:34:03;18.20;48.70
4097;DHT22;2062;50.694;7.246;2024-03-17T11:36:37;18.20;47.80
4097;DHT22;2062;50.694;7.246;2024-03-17T11:39:05;18.30;48.20
4097;DHT22;2062;50.694;7.246;2024-03-17T11:41:36;18.40;47.60
4097;DHT22;2062;50.694;7.246;2024-03-17T11:44:23;18.40;47.10
4097;DHT22;2062;50.694;7.246;2024-03-17T11:46:53;18.50;46.50
4097;DHT22;2062;50.694;7.246;2024-03-17T11:49:22;18.50;46.50
4097;DHT22;2062;50.694;7.246;2024-03-17T11:51:49;18.50;46.70
4097;DHT22;2062;50.694;7.246;2024-03-17T11:54:17;18.50;46.80
4097;DHT22;2062;50.694;7.246;2024-03-17T11:56:45;18.50;46.60
4097;DHT22;2062;50.694;7.246;2024-03-17T11:59:12;18.50;46.30
4097;DHT22;2062;50.694;7.246;2024-03-17T12:01:39;18.50;46.80
4097;DHT22;2062;50.694;7.246;2024-03-17T12:04:07;18.50;46.40
4097;DHT22;2062;50.694;7.246;2024-03-17T12:06:33;18.50;46.40
4097;DHT22;2062;50.694;7.246;2024-03-17T12:09:11;18.60;46.00
4097;DHT22;2062;50.694;7.246;2024-03-17T12:11:42;18.50;45.80
4097;DHT22;2062;50.694;7.246;2024-03-17T12:14:16;18.50;45.80
4097;DHT22;2062;50.694;7.246;2024-03-17T12:16:52;18.50;45.70
4097;DHT22;2062;50.694;7.246;2024-03-17T12:19:21;18.50;45.40
4097;DHT22;2062;50.694;7.246;2024-03-17T12:21:51;18.50;45.30
4097;DHT22;2062;50.694;7.246;2024-03-17T12:24:18;18.50;45.40
4097;DHT22;2062;50.694;7.246;2024-03-17T12:26:46;18.50;45.60
4097;DHT22;2062;50.694;7.246;2024-03-17T12:29:23;18.40;45.10
4097;DHT22;2062;50.694;7.246;2024-03-17T12:31:50;18.40;44.50
4097;DHT22;2062;50.694;7.246;2024-03-17T12:34:17;18.40;44.70
4097;DHT22;2062;50.694;7.246;2024-03-17T12:36:46;18.40;45.00
4097;DHT22;2062;50.694;7.246;2024-03-17T12:39:18;18.40;45.30
4097;DHT22;2062;50.694;7.246;2024-03-17T12:41:45;18.40;45.00
4097;DHT22;2062;50.694;7.246;2024-03-17T12:44:24;18.40;45.20
4097;DHT22;2062;50.694;7.246;2024-03-17T12:46:55;18.30;45.00
4097;DHT22;2062;50.694;7.246;2024-03-17T12:49:21;18.30;45.00
4097;DHT22;2062;50.694;7.246;2024-03-17T12:51:52;18.30;45.20
4097;DHT22;2062;50.694;7.246;2024-03-17T12:54:21;18.30;45.10
4097;DHT22;2062;50.694;7.246;2024-03-17T12:56:48;18.30;45.00
4097;DHT22;2062;50.694;7.246;2024-03-17T12:59:42;18.30;44.70
4097;DHT22;2062;50.694;7.246;2024-03-17T13:02:27;18.30;44.90
4097;DHT22;2062;50.694;7.246;2024-03-17T13:05:16;18.20;45.00
4097;DHT22;2062;50.694;7.246;2024-03-17T13:07:45;18.20;44.00
4097;DHT22;2062;50.694;7.246;2024-03-17T13:10:13;18.20;44.80
4097;DHT22;2062;50.694;7.246;2024-03-17T13:12:41;18.20;44.90
4097;DHT22;2062;50.694;7.246;2024-03-17T13:15:12;18.10;44.60
4097;DHT22;2062;50.694;7.246;2024-03-17T13:17:39;18.10;44.60
4097;DHT22;2062;50.694;7.246;2024-03-17T13:20:07;18.10;44.50
4097;DHT22;2062;50.694;7.246;2024-03-17T13:22:37;18.00;44.60
4097;DHT22;2062;50.694;7.246;2024-03-17T13:25:08;18.00;44.50
4097;DHT22;2062;50.694;7.246;2024-03-17T13:27:36;17.90;44.50
4097;DHT22;2062;50.694;7.246;2024-03-17T13:30:03;17.90;44.30
4097;DHT22;2062;50.694;7.246;2024-03-17T13:32:31;17.90;44.30
4097;DHT22;2062;50.694;7.246;2024-03-17T13:34:58;17.80;43.80
4097;DHT22;2062;50.694;7.246;2024-03-17T13:37:25;17.80;43.80
4097;DHT22;2062;50.694;7.246;2024-03-17T13:39:52;17.60;43.50
4097;DHT22;2062;50.694;7.246;2024-03-17T13:42:20;17.60;43.30
4097;DHT22;2062;50.694;7.246;2024-03-17T13:44:47;17.50;43.50
4097;DHT22;2062;50.694;7.246;2024-03-17T13:47:15;17.40;43.40
4097;DHT22;2062;50.694;7.246;2024-03-17T13:49:43;17.30;43.40
4097;DHT22;2062;50.694;7.246;2024-03-17T13:52:10;17.30;43.40
4097;DHT22;2062;50.694;7.246;2024-03-17T13:54:38;17.20;43.50
4097;DHT22;2062;50.694;7.246;2024-03-17T13:57:05;17.10;43.50
4097;DHT22;2062;50.694;7.246;2024-03-17T13:59:33;17.00;43.60
4097;DHT22;2062;50.694;7.246;2024-03-17T14:02:01;17.00;43.80
4097;DHT22;2062;50.694;7.246;2024-03-17T14:04:29;16.90;43.80
4097;DHT22;2062;50.694;7.246;2024-03-17T14:06:56;16.80;43.60
4097;DHT22;2062;50.694;7.246;2024-03-17T14:09:23;16.80;43.90
4097;DHT22;2062;50.694;7.246;2024-03-17T14:11:50;16.70;43.80
4097;DHT22;2062;50.694;7.246;2024-03-17T14:14:18;16.60;44.00
4097;DHT22;2062;50.694;7.246;2024-03-17T14:16:47;16.50;44.00
4097;DHT22;2062;50.694;7.246;2024-03-17T14:19:14;16.50;43.80
4097;DHT22;2062;50.694;7.246;2024-03-17T14:21:41;16.40;43.80
4097;DHT22;2062;50.694;7.246;2024-03-17T14:24:08;16.40;44.10
4097;DHT22;2062;50.694;7.246;2024-03-17T14:26:36;16.30;44.10
4097;DHT22;2062;50.694;7.246;2024-03-17T14:29:03;16.30;44.20
4097;DHT22;2062;50.694;7.246;2024-03-17T14:31:31;16.20;44.40
4097;DHT22;2062;50.694;7.246;2024-03-17T14:34:01;16.20;44.30
4097;DHT22;2062;50.694;7.246;2024-03-17T14:36:30;16.10;44.70
4097;DHT22;2062;50.694;7.246;2024-03-17T14:38:56;16.10;44.70
4097;DHT22;2062;50.694;7.246;2024-03-17T14:41:24;16.10;45.00
4097;DHT22;2062;50.694;7.246;2024-03-17T14:43:51;16.00;44.90
4097;DHT22;2062;50.694;7.246;2024-03-17T14:46:18;16.00;44.90
4097;DHT22;2062;50.694;7.246;2024-03-17T14:48:45;16.00;45.10
4097;DHT22;2062;50.694;7.246;2024-03-17T14:51:14;16.00;45.10
4097;DHT22;2062;50.694;7.246;2024-03-17T14:53:41;16.00;45.30
4097;DHT22;2062;50.694;7.246;2024-03-17T14:56:14;16.10;45.20
4097;DHT22;2062;50.694;7.246;2024-03-17T14:58:41;16.10;45.40
4097;DHT22;2062;50.694;7.246;2024-03-17T15:01:08;16.00;45.20
4097;DHT22;2062;50.694;7.246;2024-03-17T15:03:35;16.10;45.30
4097;DHT22;2062;50.694;7.246;2024-03-17T15:06:03;16.00;45.10
4097;DHT22;2062;50.694;7.246;2024-03-17T15:08:31;16.10;45.20
4097;DHT22;2062;50.694;7.246;2024-03-17T15:10:59;16.10;45.30
4097;DHT22;2062;50.694;7.246;2024-03-17T15:13:26;16.10;45.50
4097;DHT22;2062;50.694;7.246;2024-03-17T15:15:53;16.10;45.40
4097;DHT22;2062;50.694;7.246;2024-03-17T15:18:20;16.20;45.70
4097;DHT22;2062;50.694;7.246;2024-03-17T15:20:51;16.20;45.80
4097;DHT22;2062;50.694;7.246;2024-03-17T15:23:18;16.30;45.80
4097;DHT22;2062;50.694;7.246;2024-03-17T15:25:47;16.30;45.80
4097;DHT22;2062;50.694;7.246;2024-03-17T15:28:13;16.40;46.00
4097;DHT22;2062;50.694;7.246;2024-03-17T15:30:40;16.50;45.90
4097;DHT22;2062;50.694;7.246;2024-03-17T15:33:07;16.60;46.00
4097;DHT22;2062;50.694;7.246;2024-03-17T15:35:34;16.70;46.20
4097;DHT22;2062;50.694;7.246;2024-03-17T15:38:01;16.70;45.80
4097;DHT22;2062;50.694;7.246;2024-03-17T15:40:28;16.80;45.60
4097;DHT22;2062;50.694;7.246;2024-03-17T15:42:57;16.90;45.90
4097;DHT22;2062;50.694;7.246;2024-03-17T15:45:24;16.90;45.70
4097;DHT22;2062;50.694;7.246;2024-03-17T15:47:52;17.00;45.60
4097;DHT22;2062;50.694;7.246;2024-03-17T15:50:19;17.10;45.40
4097;DHT22;2062;50.694;7.246;2024-03-17T15:52:46;17.10;45.30
4097;DHT22;2062;50.694;7.246;2024-03-17T15:55:14;17.10;44.90
4097;DHT22;2062;50.694;7.246;2024-03-17T15:57:40;17.10;44.80
4097;DHT22;2062;50.694;7.246;2024-03-17T16:00:09;17.20;44.90
4097;DHT22;2062;50.694;7.246;2024-03-17T16:02:38;17.20;44.60
4097;DHT22;2062;50.694;7.246;2024-03-17T16:05:05;17.10;44.50
4097;DHT22;2062;50.694;7.246;2024-03-17T16:07:36;17.10;44.40
4097;DHT22;2062;50.694;7.246;2024-03-17T16:10:04;17.00;44.90
4097;DHT22;2062;50.694;7.246;2024-03-17T16:12:34;17.00;44.00
4097;DHT22;2062;50.694;7.246;2024-03-17T16:15:01;16.90;43.70
4097;DHT22;2062;50.694;7.246;2024-03-17T16:17:30;16.80;43.60